Time;durP1;ratioP1;P1;durP2;ratioP2;P2;SDS_P1;SDS_P2;PMS_P1;PMS_P2;Temp;Humidity;BMP_temperature;BMP_pressure;BME280_temperature;BME280_humidity;BME280_pressure;Samples;Min_cycle;Max_cycle;Signal;HPM_P1;HPM_P2
2022/05/05 00:01:19;;;;;;;13.07;5.77;;;;;;;10.73;47.40;100857.09;124859;1099;102871;-78
2022/05/05 00:03:51;;;;;;;14.07;5.20;;;;;;;10.69;48.04;100857.81;124895;1099;104173;-77
2022/05/05 00:06:22;;;;;;;12.47;5.60;;;;;;;10.64;47.91;100872.45;124866;1099;102293;-78
2022/05/05 00:08:54;;;;;;;12.90;5.27;;;;;;;10.57;48.11;100873.05;124835;1099;104475;-78
2022/05/05 00:14:24;;;;;;;11.77;4.97;;;;;;;10.48;49.05;100875.30;124837;1099;104265;-76
2022/05/05 00:16:58;;;;;;;14.07;5.30;;;;;;;10.40;48.45;100867.98;124892;1099;104166;-77
2022/05/05 00:19:34;;;;;;;11.40;5.17;;;;;;;10.34;49.31;100883.46;124814;1099;104377;-76
2022/05/05 00:22:07;;;;;;;13.07;5.47;;;;;;;10.27;49.79;100870.90;124852;1099;104169;-77
2022/05/05 00:24:40;;;;;;;13.80;5.60;;;;;;;10.22;49.37;100885.52;124389;1099;102816;-76
2022/05/05 00:27:11;;;;;;;11.90;5.77;;;;;;;10.16;49.35;100880.92;124332;1099;104329;-76
2022/05/05 00:29:45;;;;;;;12.53;6.13;;;;;;;10.14;50.21;100889.55;124431;1099;104360;-76
2022/05/05 00:32:20;;;;;;;12.75;5.65;;;;;;;10.11;49.54;100892.92;124837;1098;104222;-76
2022/05/05 00:34:51;;;;;;;16.17;6.40;;;;;;;10.11;49.68;100903.41;124707;1098;102342;-77
2022/05/05 00:37:24;;;;;;;11.80;5.93;;;;;;;10.04;50.09;100896.12;124459;1099;104224;-77
2022/05/05 00:39:56;;;;;;;13.70;5.53;;;;;;;10.00;49.86;100904.67;124393;1099;104368;-75
2022/05/05 00:42:28;;;;;;;14.13;5.30;;;;;;;9.94;50.43;100905.31;124419;1099;104202;-76
2022/05/05 00:45:04;;;;;;;14.70;5.97;;;;;;;9.92;50.25;100914.81;124287;1101;104271;-76
2022/05/05 00:47:35;;;;;;;10.27;5.27;;;;;;;9.89;50.66;100915.59;124250;1102;104429;-76
2022/05/05 00:50:14;;;;;;;12.67;5.43;;;;;;;9.89;49.93;100917.30;124361;1099;102535;-76
2022/05/05 00:52:46;;;;;;;12.27;5.23;;;;;;;9.90;50.58;100919.98;124804;1099;102033;-76
2022/05/05 00:55:19;;;;;;;11.50;5.33;;;;;;;9.92;50.06;100919.17;124778;1099;102072;-76
2022/05/05 00:57:50;;;;;;;;;;;;;;;9.92;50.53;100922.67;124875;1099;104223;-77
2022/05/05 01:00:23;;;;;;;10.77;4.90;;;;;;;9.94;50.34;100934.16;124797;1099;102484;-77
2022/05/05 01:02:58;;;;;;;9.80;5.00;;;;;;;9.97;50.58;100936.91;124817;1099;104320;-77
2022/05/05 01:05:33;;;;;;;14.00;5.33;;;;;;;9.97;50.04;100936.91;124885;1099;104175;-77
2022/05/05 01:08:06;;;;;;;11.38;4.90;;;;;;;9.98;50.10;100937.80;124848;1099;103311;-77
2022/05/05 01:10:37;;;;;;;11.75;5.00;;;;;;;9.96;50.81;100942.97;124896;1099;104172;-77
2022/05/05 01:13:09;;;;;;;14.47;5.00;;;;;;;9.98;50.57;100948.28;124747;1099;104451;-77
2022/05/05 01:15:41;;;;;;;10.77;4.93;;;;;;;10.01;50.08;100945.80;124869;1099;104211;-77
2022/05/05 01:18:13;;;;;;;11.30;4.90;;;;;;;10.02;50.48;100952.81;124741;1099;104165;-77
2022/05/05 01:20:52;;;;;;;11.00;4.60;;;;;;;10.02;50.22;100955.44;124844;1099;104380;-78
2022/05/05 01:23:25;;;;;;;10.93;5.37;;;;;;;10.03;50.39;100954.62;124892;1099;103216;-77
2022/05/05 01:28:47;;;;;;;12.63;4.90;;;;;;;10.01;50.28;100962.41;124534;1099;104239;-78
2022/05/05 01:31:19;;;;;;;13.53;4.60;;;;;;;9.99;50.25;100963.20;124809;1099;104313;-77
2022/05/05 01:33:52;;;;;;;14.27;4.50;;;;;;;10.00;50.95;100967.59;124822;1099;102669;-78
2022/05/05 01:36:25;;;;;;;11.00;4.70;;;;;;;10.00;50.96;100973.75;124762;1099;104243;-78
2022/05/05 01:38:57;;;;;;;11.40;4.87;;;;;;;9.98;50.34;100975.39;124908;1099;104235;-78
2022/05/05 01:41:31;;;;;;;14.40;4.97;;;;;;;9.96;50.82;100979.67;124884;1098;104223;-77
2022/05/05 01:44:03;;;;;;;12.23;4.60;;;;;;;9.94;50.47;100972.55;124844;1098;104333;-77
2022/05/05 01:46:34;;;;;;;12.90;5.13;;;;;;;9.92;51.02;100979.46;124857;1099;104264;-78
2022/05/05 01:49:06;;;;;;;12.77;4.97;;;;;;;9.89;50.44;100975.88;124812;1099;104275;-78
2022/05/05 01:51:39;;;;;;;13.33;4.90;;;;;;;9.90;51.17;100975.03;124744;1099;104165;-78
2022/05/05 01:54:13;;;;;;;13.27;5.10;;;;;;;9.95;50.93;100983.11;124742;1099;104284;-78
2022/05/05 01:56:45;;;;;;;14.18;5.20;;;;;;;10.00;50.67;100981.62;124881;1099;101828;-78
2022/05/05 01:59:19;;;;;;;12.90;4.77;;;;;;;10.07;51.16;100990.66;124968;1099;102745;-79
2022/05/05 02:01:50;;;;;;;16.57;5.17;;;;;;;10.11;50.96;100991.67;124823;1099;102297;-78
2022/05/05 02:04:25;;;;;;;11.37;4.60;;;;;;;10.14;50.52;100991.81;124746;1099;104415;-78
2022/05/05 02:06:58;;;;;;;13.33;5.50;;;;;;;10.15;51.01;100994.51;124918;1099;104328;-78
2022/05/05 02:09:30;;;;;;;14.20;5.23;;;;;;;10.14;51.17;100991.81;124839;1099;102204;-78
2022/05/05 02:12:03;;;;;;;9.67;4.83;;;;;;;10.14;50.91;100995.33;124794;1099;102215;-79
2022/05/05 02:14:35;;;;;;;12.83;5.00;;;;;;;10.14;51.16;101004.93;124956;1098;104272;-76
2022/05/05 02:17:07;;;;;;;13.07;4.87;;;;;;;10.14;51.21;101000.57;124804;1098;104239;-76
2022/05/05 02:19:40;;;;;;;13.77;4.90;;;;;;;10.15;51.12;101002.38;124964;1099;104814;-78
2022/05/05 02:22:12;;;;;;;14.35;4.80;;;;;;;10.18;51.07;101004.25;124892;1099;102842;-77
2022/05/05 02:24:44;;;;;;;9.60;4.27;;;;;;;10.17;51.13;101008.58;124793;1099;102144;-78
2022/05/05 02:27:16;;;;;;;8.33;4.30;;;;;;;10.17;50.65;101007.69;124913;1098;102636;-77
2022/05/05 02:29:49;;;;;;;13.10;4.33;;;;;;;10.16;50.94;101009.42;124986;1099;104209;-77
2022/05/05 02:32:22;;;;;;;10.53;4.37;;;;;;;10.13;50.58;101014.53;124850;1099;104159;-77
2022/05/05 02:34:55;;;;;;;9.55;4.20;;;;;;;10.14;51.16;101020.66;124879;1099;104227;-78
2022/05/05 02:40:16;;;;;;;12.83;4.10;;;;;;;10.13;50.39;101029.34;124881;1099;104197;-78
2022/05/05 02:42:48;;;;;;;9.43;3.80;;;;;;;10.14;50.56;101025.91;124851;1099;104031;-78
2022/05/05 02:45:19;;;;;;;10.67;3.80;;;;;;;10.17;50.32;101034.80;124932;1099;104214;-78
2022/05/05 02:47:52;;;;;;;9.57;4.03;;;;;;;10.19;50.38;101041.04;124926;1099;104181;-78
2022/05/05 02:50:24;;;;;;;13.83;4.23;;;;;;;10.20;50.27;101055.92;124870;1099;104320;-78
2022/05/05 02:52:57;;;;;;;11.60;3.93;;;;;;;10.20;50.09;101055.92;124874;1099;104258;-78
2022/05/05 02:55:29;;;;;;;10.00;3.87;;;;;;;10.18;50.44;101060.21;124754;1099;102940;-77
2022/05/05 02:58:02;;;;;;;9.77;3.63;;;;;;;10.17;49.90;101063.66;124909;1099;104182;-77
2022/05/05 03:00:33;;;;;;;7.83;3.77;;;;;;;10.14;49.93;101073.11;124933;1099;102223;-77
2022/05/05 03:03:07;;;;;;;14.33;3.70;;;;;;;10.11;50.36;101070.34;124868;1099;102281;-78
2022/05/05 03:05:39;;;;;;;10.60;3.23;;;;;;;10.10;49.79;101076.41;124890;1099;104210;-78
2022/05/05 03:08:11;;;;;;;6.80;3.17;;;;;;;10.07;49.86;101080.69;124885;1099;104303;-78
2022/05/05 03:10:43;;;;;;;14.00;4.60;;;;;;;10.03;49.66;101081.36;124918;1099;101816;-78
2022/05/05 03:13:16;;;;;;;7.53;3.40;;;;;;;10.05;49.74;101084.05;124858;1099;104203;-78
2022/05/05 03:15:48;;;;;;;9.20;3.73;;;;;;;10.07;49.85;101090.30;124924;1099;102695;-78
2022/05/05 03:18:20;;;;;;;10.77;3.80;;;;;;;10.09;49.84;101091.25;124838;1098;104281;-77
2022/05/05 03:20:54;;;;;;;11.03;3.50;;;;;;;10.11;48.83;101093.95;124830;1099;102385;-78
2022/05/05 03:23:26;;;;;;;10.88;3.70;;;;;;;10.16;48.98;101100.30;124989;1099;104047;-77
2022/05/05 03:25:59;;;;;;;9.43;3.03;;;;;;;10.17;48.44;101099.48;124968;1099;102612;-77
2022/05/05 03:28:33;;;;;;;8.60;2.90;;;;;;;10.20;48.40;101097.89;124895;1099;104229;-78
2022/05/05 03:31:07;;;;;;;7.37;3.10;;;;;;;10.24;48.66;101101.58;124905;1099;102972;-78
2022/05/05 03:33:39;;;;;;;10.07;3.33;;;;;;;10.28;48.05;101095.63;124853;1099;104386;-77
2022/05/05 03:36:10;;;;;;;9.57;3.27;;;;;;;10.32;48.03;101099.31;124886;1099;104191;-77
2022/05/05 03:38:44;;;;;;;11.73;3.60;;;;;;;10.36;48.47;101107.42;124851;1099;104236;-77
2022/05/05 03:41:19;;;;;;;7.60;3.20;;;;;;;10.42;48.16;101105.09;124958;1099;102800;-78
2022/05/05 03:43:57;;;;;;;11.73;3.30;;;;;;;10.50;48.33;101105.44;125067;1099;102111;-78
2022/05/05 03:46:30;;;;;;;8.50;3.20;;;;;;;10.54;47.74;101107.35;124955;1099;104326;-77
2022/05/05 03:49:08;;;;;;;10.50;3.20;;;;;;;10.60;47.83;101107.63;124874;1099;104253;-77
2022/05/05 03:51:42;;;;;;;9.73;3.77;;;;;;;10.66;47.55;101112.27;125138;1099;102880;-77
2022/05/05 03:54:14;;;;;;;9.07;3.23;;;;;;;10.70;47.92;101111.56;125063;1099;102271;-77
2022/05/05 03:56:47;;;;;;;10.23;3.53;;;;;;;10.72;47.49;101112.55;125026;1099;104278;-77
2022/05/05 03:59:20;;;;;;;11.73;3.60;;;;;;;10.74;47.18;101117.87;124812;1099;102852;-78
2022/05/05 04:01:51;;;;;;;9.03;3.20;;;;;;;10.77;47.32;101118.89;124897;1099;104112;-77
2022/05/05 04:04:25;;;;;;;14.93;3.50;;;;;;;10.85;47.64;101119.23;125010;1099;104166;-77
2022/05/05 04:06:57;;;;;;;6.53;3.10;;;;;;;10.87;46.93;101124.55;125089;1099;102544;-77
2022/05/05 04:09:29;;;;;;;10.40;3.63;;;;;;;10.91;47.32;101114.25;124506;1102;104358;-78
2022/05/05 04:12:01;;;;;;;9.97;3.60;;;;;;;10.96;46.88;101117.09;124966;1099;104405;-78
2022/05/05 04:14:33;;;;;;;9.67;3.30;;;;;;;11.00;46.74;101119.03;124869;1099;104268;-78
2022/05/05 04:17:06;;;;;;;8.73;3.50;;;;;;;11.04;46.46;101120.05;125095;1099;102884;-78
2022/05/05 04:19:41;;;;;;;7.87;3.15;;;;;;;11.06;46.51;101124.52;125035;1099;104303;-80
2022/05/05 04:22:12;;;;;;;11.30;3.33;;;;;;;11.13;46.33;101125.70;125022;1099;102900;-77
2022/05/05 04:24:44;;;;;;;10.53;3.60;;;;;;;11.14;46.00;101131.02;125027;1099;102705;-78
2022/05/05 04:27:17;;;;;;;5.23;2.53;;;;;;;11.17;45.81;101127.61;124960;1099;104213;-78
2022/05/05 04:29:50;;;;;;;9.53;3.08;;;;;;;11.22;45.60;101130.44;125114;1099;104195;-77
2022/05/05 04:32:24;;;;;;;6.80;3.20;;;;;;;11.25;45.41;101127.94;125459;1099;102800;-78
2022/05/05 04:34:55;;;;;;;;;;;;;;;11.27;44.42;101123.67;125360;1099;102567;-78
2022/05/05 04:37:26;;;;;;;7.47;3.30;;;;;;;11.31;44.88;101133.46;125153;1099;104185;-78
2022/05/05 04:39:58;;;;;;;8.33;3.20;;;;;;;11.35;44.78;101126.62;125305;1099;103402;-79
2022/05/05 04:42:31;;;;;;;10.83;3.30;;;;;;;11.36;45.03;101128.41;125102;1099;104195;-78
2022/05/05 04:45:03;;;;;;;7.53;3.60;;;;;;;11.37;45.12;101131.09;125222;1098;102443;-77
2022/05/05 04:47:37;;;;;;;7.37;3.00;;;;;;;11.43;44.36;101127.84;125123;1099;104759;-78
2022/05/05 04:50:12;;;;;;;9.47;3.00;;;;;;;11.45;44.84;101134.97;125315;1099;104066;-78
2022/05/05 04:52:44;;;;;;;7.97;3.17;;;;;;;11.50;44.22;101127.28;125520;1099;101888;-78
2022/05/05 04:55:16;;;;;;;7.37;3.00;;;;;;;11.51;44.08;101129.97;125558;1099;102256;-79
2022/05/05 04:57:49;;;;;;;6.47;2.80;;;;;;;11.56;44.12;101137.12;125295;1099;103241;-78
2022/05/05 05:00:22;;;;;;;10.00;3.20;;;;;;;11.58;43.77;101135.48;125148;1099;102072;-78
2022/05/05 05:02:54;;;;;;;5.90;2.77;;;;;;;11.58;43.00;101136.38;124946;1099;104622;-78
2022/05/05 05:05:26;;;;;;;11.27;3.30;;;;;;;11.58;43.62;101148.63;125168;1099;104047;-77
2022/05/05 05:07:57;;;;;;;7.27;2.80;;;;;;;11.59;42.55;101143.41;125060;1099;102335;-77
2022/05/05 05:10:29;;;;;;;7.90;2.93;;;;;;;11.63;42.85;101152.34;125037;1099;102121;-77
2022/05/05 05:13:02;;;;;;;9.73;3.00;;;;;;;11.65;43.12;101146.28;124653;1099;104195;-77
2022/05/05 05:15:33;;;;;;;8.50;2.83;;;;;;;11.74;42.27;101148.41;125189;1099;104303;-76
2022/05/05 05:18:05;;;;;;;10.27;3.40;;;;;;;11.81;42.42;101147.84;125091;1099;104187;-76
2022/05/05 05:20:38;;;;;;;11.20;3.10;;;;;;;11.88;42.41;101149.87;125242;1099;104216;-76
2022/05/05 05:23:12;;;;;;;5.73;2.87;;;;;;;11.95;41.63;101151.07;125242;1098;104210;-76
2022/05/05 05:25:44;;;;;;;10.53;2.90;;;;;;;12.03;41.99;101148.75;125091;1099;104210;-77
2022/05/05 05:28:17;;;;;;;8.07;3.10;;;;;;;12.09;40.77;101158.59;125005;1099;104791;-77
2022/05/05 05:30:49;;;;;;;5.13;2.70;;;;;;;12.13;41.05;101157.89;125240;1099;104159;-78
2022/05/05 05:33:23;;;;;;;7.75;2.90;;;;;;;12.18;41.63;101158.97;124986;1099;103349;-77
2022/05/05 05:35:55;;;;;;;8.58;3.00;;;;;;;12.22;41.76;101161.78;124965;1099;104281;-78
2022/05/05 05:38:27;;;;;;;8.33;2.97;;;;;;;12.32;41.48;101159.52;125087;1099;104163;-77
2022/05/05 05:40:59;;;;;;;8.67;2.80;;;;;;;12.40;41.56;101166.88;125037;1099;104383;-78
2022/05/05 05:43:31;;;;;;;7.43;2.83;;;;;;;12.43;41.20;101165.20;125053;1099;102826;-77
2022/05/05 05:46:02;;;;;;;7.27;2.90;;;;;;;12.42;40.69;101174.84;125187;1099;104236;-77
2022/05/05 05:48:34;;;;;;;9.43;2.70;;;;;;;12.43;40.60;101176.61;125168;1099;104169;-78
2022/05/05 05:51:13;;;;;;;7.00;2.70;;;;;;;12.40;40.23;101173.86;125205;1097;104178;-78
2022/05/05 05:53:45;;;;;;;9.27;2.87;;;;;;;12.42;40.76;101174.84;124872;1099;104264;-79
2022/05/05 05:56:16;;;;;;;8.63;2.67;;;;;;;12.50;40.50;101175.14;125064;1099;104296;-77
2022/05/05 05:59:01;;;;;;;6.33;2.67;;;;;;;12.56;39.95;101178.89;125445;1099;102255;-78
2022/05/05 06:04:23;;;;;;;7.63;2.67;;;;;;;12.56;39.26;101178.89;125208;1099;104760;-79
2022/05/05 06:06:59;;;;;;;8.67;2.80;;;;;;;12.66;40.30;101181.88;125496;1099;102583;-79
2022/05/05 06:09:31;;;;;;;10.87;3.30;;;;;;;12.73;40.06;101179.54;125326;1099;102724;-78
2022/05/05 06:12:04;;;;;;;9.57;2.80;;;;;;;12.79;39.81;101183.23;125063;1099;104227;-78
2022/05/05 06:14:37;;;;;;;5.67;2.80;;;;;;;12.82;39.98;101184.23;125271;1097;102800;-80
2022/05/05 06:17:09;;;;;;;12.63;2.40;;;;;;;12.86;39.37;101187.90;125138;1099;104165;-80
2022/05/05 06:19:45;;;;;;;11.40;2.70;;;;;;;12.91;39.79;101178.42;125143;1099;104191;-79
2022/05/05 06:22:20;;;;;;;6.17;2.63;;;;;;;12.99;39.62;101181.34;124987;1099;102718;-79
2022/05/05 06:24:54;;;;;;;8.20;2.57;;;;;;;13.08;39.65;101184.31;125128;1097;102714;-78
2022/05/05 06:27:28;;;;;;;9.93;3.17;;;;;;;13.15;38.68;101186.34;125863;1099;102784;-79
2022/05/05 06:30:14;;;;;;;7.33;2.67;;;;;;;13.20;38.84;101191.75;125924;1098;104165;-78
2022/05/05 06:32:56;;;;;;;5.33;2.60;;;;;;;13.30;38.41;101196.52;125928;1099;109180;-82
2022/05/05 06:35:44;;;;;;;8.13;3.02;;;;;;;13.36;38.04;101198.52;126092;1099;103234;-81
2022/05/05 06:38:17;;;;;;;7.23;2.93;;;;;;;13.43;37.94;101196.16;126009;1099;104098;-79
2022/05/05 06:40:50;;;;;;;8.83;2.72;;;;;;;13.56;38.31;101197.47;125813;1099;104268;-79
2022/05/05 06:43:22;;;;;;;7.77;2.70;;;;;;;13.66;37.90;101199.59;125152;1099;117912;-79
2022/05/05 06:45:57;;;;;;;7.95;2.90;;;;;;;13.73;38.32;101205.05;124560;1099;104415;-79
2022/05/05 06:48:34;;;;;;;5.37;2.30;;;;;;;13.80;37.82;101205.31;124661;1103;104245;-79
2022/05/05 06:51:15;;;;;;;5.33;2.27;;;;;;;13.93;35.32;101196.09;125529;1102;105022;-80
2022/05/05 06:53:53;;;;;;;5.50;2.30;;;;;;;14.01;35.94;101199.86;124714;1099;102845;-81
2022/05/05 06:56:32;;;;;;;7.77;2.70;;;;;;;14.07;36.62;101200.90;125338;1102;104163;-81
2022/05/05 06:59:11;;;;;;;6.77;2.60;;;;;;;14.17;37.45;101203.00;125328;1099;102485;-79
2022/05/05 07:02:00;;;;;;;7.57;2.63;;;;;;;14.31;37.04;101200.81;124661;1102;104354;-79
2022/05/05 07:07:26;;;;;;;5.53;2.40;;;;;;;14.71;34.97;101202.08;125089;1099;102518;-78
2022/05/05 07:12:58;;;;;;;5.40;2.17;;;;;;;15.05;34.36;101216.25;124400;1099;104268;-76
2022/05/05 07:15:35;;;;;;;8.17;2.97;;;;;;;15.04;35.85;101194.22;124765;1099;104217;-77
2022/05/05 07:18:15;;;;;;;9.45;3.05;;;;;;;15.22;34.71;101212.37;124934;1099;102622;-77
2022/05/05 07:20:47;;;;;;;4.80;2.60;;;;;;;15.34;33.32;101216.20;124964;1099;102252;-77
2022/05/05 07:23:26;;;;;;;6.50;3.00;;;;;;;15.38;34.63;101213.67;126091;1099;101940;-77
2022/05/05 07:26:01;;;;;;;8.70;2.90;;;;;;;15.48;33.61;101216.58;125810;1099;104204;-79
2022/05/05 07:32:24;;;;;;;7.73;2.90;;;;;;;15.80;34.28;101202.47;125794;1099;104178;-78
2022/05/05 07:35:00;;;;;;;5.95;2.40;;;;;;;16.09;32.97;101210.23;124754;1100;104356;-78
2022/05/05 07:37:34;;;;;;;8.83;3.12;;;;;;;16.24;34.25;101207.06;124934;1099;104267;-77
2022/05/05 07:40:10;;;;;;;6.50;2.70;;;;;;;16.41;32.71;101207.47;125665;1099;102237;-77
2022/05/05 07:42:43;;;;;;;5.93;2.90;;;;;;;16.54;33.41;101206.86;125802;1099;104184;-78
2022/05/05 07:45:15;;;;;;;7.70;2.93;;;;;;;16.62;32.74;101199.09;124889;1099;104265;-77
2022/05/05 07:47:47;;;;;;;6.87;3.10;;;;;;;16.75;31.89;101200.28;124924;1099;104175;-78
2022/05/05 07:50:18;;;;;;;6.43;2.77;;;;;;;16.94;32.38;101200.67;124880;1099;104266;-78
2022/05/05 07:52:50;;;;;;;5.10;2.70;;;;;;;17.13;30.87;101202.84;124890;1099;102251;-78
2022/05/05 07:55:25;;;;;;;6.10;2.73;;;;;;;17.19;29.62;101207.39;124934;1099;103696;-78
2022/05/05 07:57:57;;;;;;;;;;;;;;;17.12;27.78;101195.74;125031;1098;102358;-78
2022/05/05 08:04:09;;;;;;;5.97;2.63;;;;;;;17.33;30.40;101207.66;125119;1101;104344;-79
2022/05/05 08:06:43;;;;;;;7.60;2.93;;;;;;;17.38;29.75;101203.33;125170;1102;107828;-79
2022/05/05 08:09:16;;;;;;;7.03;2.80;;;;;;;17.39;29.16;101203.36;124562;1102;104217;-78
2022/05/05 08:11:51;;;;;;;;;;;;;;;17.41;28.60;101211.34;125248;1102;104217;-79
2022/05/05 08:14:27;;;;;;;5.30;2.77;;;;;;;17.52;29.72;101200.94;124362;1102;104207;-79
2022/05/05 08:17:01;;;;;;;10.73;2.87;;;;;;;17.59;29.50;101209.04;124447;1102;118789;-79
2022/05/05 08:19:33;;;;;;;9.00;3.30;;;;;;;17.72;29.52;101198.64;124496;1102;104549;-79
2022/05/05 08:22:06;;;;;;;6.17;2.53;;;;;;;17.46;28.01;101193.75;124717;1102;104271;-79
2022/05/05 08:30:33;;;;;;;9.00;2.73;;;;;;;17.60;28.90;101197.53;124241;1102;104229;-79
2022/05/05 08:33:10;;;;;;;;;;;;;;;17.78;28.23;101198.75;124509;1102;104185;-78
2022/05/05 08:35:52;;;;;;;6.57;2.60;;;;;;;17.64;27.44;101193.20;124452;1102;104193;-77
2022/05/05 08:38:39;;;;;;;5.80;2.70;;;;;;;17.75;27.67;101204.89;124450;1099;104245;-79
2022/05/05 08:41:37;;;;;;;7.22;3.10;;;;;;;17.82;27.72;101203.22;124460;1099;102030;-77
2022/05/05 08:44:27;;;;;;;5.10;2.60;;;;;;;17.91;28.17;101198.11;125188;1099;104249;-81
2022/05/05 08:47:25;;;;;;;6.83;2.63;;;;;;;17.93;27.50;101208.75;125150;1099;102815;-79
2022/05/05 08:50:13;;;;;;;5.33;2.50;;;;;;;17.92;27.98;101199.91;124765;1099;102907;-79
2022/05/05 08:56:22;;;;;;;6.80;2.67;;;;;;;18.04;28.38;101200.97;125600;1099;102547;-81
2022/05/05 08:59:19;;;;;;;6.70;2.83;;;;;;;18.01;27.72;101198.26;125840;1099;102544;-81
2022/05/05 09:02:10;;;;;;;6.37;2.70;;;;;;;17.97;28.08;101197.33;125945;1099;104057;-80
2022/05/05 09:08:16;;;;;;;5.00;2.60;;;;;;;18.05;28.14;101189.48;125828;1098;104224;-80
2022/05/05 09:11:02;;;;;;;6.23;2.63;;;;;;;18.21;27.94;101185.30;125778;1099;102195;-78
2022/05/05 09:14:00;;;;;;;5.07;2.60;;;;;;;18.23;27.70;101180.89;125725;1099;102361;-80
2022/05/05 09:16:39;;;;;;;6.10;2.70;;;;;;;18.28;27.36;101193.39;125180;1097;103266;-81
2022/05/05 09:19:49;;;;;;;4.57;2.40;;;;;;;18.22;25.34;101195.06;125619;1099;104118;-78
2022/05/05 09:22:48;;;;;;;;;;;;;;;;;;;;;
2022/05/05 09:25:45;;;;;;;7.63;2.47;;;;;;;17.90;26.64;101195.42;126103;1099;104232;-80
2022/05/05 09:28:38;;;;;;;6.37;2.87;;;;;;;18.00;26.34;101180.53;125879;1099;104315;-80
2022/05/05 09:31:15;;;;;;;7.77;2.70;;;;;;;18.08;25.79;101189.53;125168;1099;104163;-79
2022/05/05 09:33:59;;;;;;;9.33;2.73;;;;;;;18.00;25.51;101172.56;125180;1099;104217;-78
2022/05/05 09:36:34;;;;;;;8.70;3.40;;;;;;;18.01;25.73;101199.14;125915;1099;103566;-78
2022/05/05 09:39:50;;;;;;;4.80;2.37;;;;;;;17.99;25.91;101192.04;125760;1099;102737;-79
2022/05/05 09:42:44;;;;;;;7.13;2.50;;;;;;;18.07;26.02;101185.08;125766;1099;104262;-80
2022/05/05 09:45:41;;;;;;;5.83;2.47;;;;;;;18.16;26.02;101189.66;126035;1099;104297;-80
2022/05/05 09:48:19;;;;;;;6.63;3.23;;;;;;;18.18;25.75;101194.10;125607;1099;104057;-81
2022/05/05 09:51:01;;;;;;;5.17;2.57;;;;;;;18.22;25.26;101187.98;125889;1099;104178;-78
2022/05/05 10:00:19;;;;;;;3.07;2.10;;;;;;;18.07;24.51;101195.70;126329;1099;102150;-79
2022/05/05 10:06:29;;;;;;;5.97;2.43;;;;;;;18.25;24.32;101188.03;125957;1099;104162;-81
2022/05/05 10:09:13;;;;;;;6.90;2.57;;;;;;;18.26;24.58;101195.14;125390;1102;104163;-80
2022/05/05 10:11:59;;;;;;;6.37;2.65;;;;;;;18.18;24.54;101180.82;125292;1100;103028;-80
2022/05/05 10:14:48;;;;;;;4.40;2.50;;;;;;;18.14;23.97;101185.20;125421;1102;104184;-79
2022/05/05 10:17:24;;;;;;;6.43;2.40;;;;;;;18.05;24.61;101178.86;125458;1102;102174;-79
2022/05/05 10:19:57;;;;;;;6.60;2.40;;;;;;;18.11;24.12;101181.62;124689;1099;104220;-79
2022/05/05 10:23:03;;;;;;;4.20;2.40;;;;;;;18.14;23.76;101186.98;125105;1099;104786;-80
2022/05/05 10:25:51;;;;;;;4.07;2.47;;;;;;;18.24;24.82;101188.88;124824;1099;103575;-80
2022/05/05 10:29:03;;;;;;;7.40;2.60;;;;;;;18.30;24.72;101191.64;124770;1099;102878;-79
2022/05/05 10:31:52;;;;;;;7.83;2.70;;;;;;;18.36;25.14;101185.53;124771;1101;104287;-79
2022/05/05 10:34:32;;;;;;;3.30;2.17;;;;;;;18.30;23.83;101180.13;124817;1102;104171;-80
2022/05/05 10:37:32;;;;;;;4.60;2.20;;;;;;;18.18;23.53;101182.59;124939;1102;104188;-81
2022/05/05 10:40:24;;;;;;;;;;;;;;;;;;;;;
2022/05/05 10:43:12;;;;;;;5.50;2.23;;;;;;;18.19;23.92;101176.42;125168;1099;104303;-80
2022/05/05 10:46:00;;;;;;;7.67;2.80;;;;;;;18.21;23.69;101172.91;124945;1099;104231;-78
2022/05/05 10:48:50;;;;;;;10.60;2.70;;;;;;;18.32;23.53;101170.41;125088;1099;104217;-78
2022/05/05 10:51:25;;;;;;;7.40;2.60;;;;;;;18.41;22.68;101177.62;125244;1098;104258;-78
2022/05/05 10:54:23;;;;;;;9.73;2.43;;;;;;;18.42;22.18;101174.11;124578;1099;104298;-78
2022/05/05 10:57:20;;;;;;;9.20;2.53;;;;;;;18.40;22.46;101171.43;124946;1098;102103;-78
2022/05/05 11:00:26;;;;;;;4.30;2.50;;;;;;;18.42;22.70;101159.05;125081;1099;104354;-78
2022/05/05 11:03:20;;;;;;;7.70;2.77;;;;;;;18.42;22.87;101168.80;124862;1099;104182;-77
2022/05/05 11:06:17;;;;;;;3.63;2.60;;;;;;;18.39;23.07;101174.06;125991;1099;102254;-77
2022/05/05 11:09:04;;;;;;;6.43;2.60;;;;;;;18.40;22.32;101166.12;124955;1099;103366;-77
2022/05/05 11:11:44;;;;;;;5.33;2.57;;;;;;;18.42;22.92;101159.05;125097;1098;108721;-79
2022/05/05 11:23:49;;;;;;;9.57;2.33;;;;;;;18.58;23.38;101141.54;125439;1099;102324;-77
2022/05/05 11:26:39;;;;;;;3.60;2.10;;;;;;;18.64;21.71;101173.52;125363;1099;104242;-78
2022/05/05 11:29:19;;;;;;;7.97;2.60;;;;;;;18.68;22.73;101164.72;125213;1099;104234;-78
2022/05/05 11:32:02;;;;;;;4.23;2.23;;;;;;;18.63;22.30;101161.09;124979;1098;104251;-78
2022/05/05 11:34:45;;;;;;;3.70;2.10;;;;;;;18.65;22.08;101156.70;125000;1099;102328;-77
2022/05/05 11:37:17;;;;;;;12.50;3.97;;;;;;;18.72;22.20;101157.67;124843;1099;102796;-77
2022/05/05 11:39:52;;;;;;;4.55;2.40;;;;;;;18.82;22.87;101153.34;124962;1099;102322;-80
2022/05/05 11:44:14;;;;;;;7.03;2.37;;;;;;;18.87;22.73;101157.02;125083;1099;102170;-80
2022/05/05 11:45:29;;;;;;;10.90;3.20;;;;;;;18.87;22.48;101151.70;125200;1099;102880;-79
2022/05/05 11:48:33;;;;;;;5.53;2.30;;;;;;;18.81;22.33;101146.27;125680;1098;104222;-81
2022/05/05 11:51:10;;;;;;;7.90;2.10;;;;;;;18.79;22.27;101151.56;125097;1099;102739;-79
2022/05/05 11:54:08;;;;;;;3.70;2.17;;;;;;;18.74;21.99;101141.73;125156;1099;102645;-80
2022/05/05 11:57:03;;;;;;;5.00;2.00;;;;;;;18.69;21.74;101147.00;125430;1099;104229;-78
2022/05/05 12:03:03;;;;;;;7.40;2.23;;;;;;;18.79;22.07;101129.38;125555;1099;102752;-77
2022/05/05 12:05:45;;;;;;;3.10;2.20;;;;;;;18.89;22.36;101138.42;125024;1099;103036;-78
2022/05/05 12:08:28;;;;;;;4.50;2.30;;;;;;;19.00;22.42;101142.97;125053;1099;102882;-79
2022/05/05 12:11:05;;;;;;;6.93;2.53;;;;;;;19.06;21.76;101135.92;125135;1099;104105;-79
2022/05/05 12:13:59;;;;;;;13.57;2.60;;;;;;;19.04;22.42;101138.56;125059;1099;104256;-79
2022/05/05 12:17:00;;;;;;;4.27;2.30;;;;;;;19.02;22.44;101124.37;125564;1099;102381;-80
2022/05/05 12:22:37;;;;;;;3.93;2.20;;;;;;;18.99;21.88;101119.89;125284;1099;102213;-80
2022/05/05 12:25:20;;;;;;;4.17;2.20;;;;;;;19.09;22.40;101125.31;125132;1099;102247;-80
2022/05/05 12:28:17;;;;;;;5.27;2.30;;;;;;;19.17;21.66;101127.19;125136;1099;104162;-79
2022/05/05 12:30:58;;;;;;;5.43;2.20;;;;;;;19.11;21.67;101113.83;125190;1099;104156;-79
2022/05/05 12:33:41;;;;;;;5.20;2.10;;;;;;;19.08;22.11;101119.11;125484;1099;103560;-80
2022/05/05 12:36:20;;;;;;;5.53;2.30;;;;;;;19.08;21.93;101118.23;125209;1099;104393;-79
2022/05/05 12:39:14;;;;;;;5.03;2.33;;;;;;;19.06;22.13;101107.58;125247;1099;103203;-80
2022/05/05 12:42:01;;;;;;;5.67;2.20;;;;;;;19.06;21.86;101106.66;125066;1099;104262;-79
2022/05/05 12:44:42;;;;;;;3.70;2.20;;;;;;;19.15;21.74;101115.66;125327;1099;102210;-80
2022/05/05 12:47:24;;;;;;;6.40;2.37;;;;;;;19.23;21.99;101118.39;125506;1098;102231;-79
2022/05/05 12:50:01;;;;;;;7.13;2.47;;;;;;;19.16;21.48;101117.41;125337;1099;104157;-79
2022/05/05 13:01:22;;;;;;;9.37;2.50;;;;;;;19.26;22.54;101107.78;124975;1099;102810;-79
2022/05/05 13:03:56;;;;;;;5.57;2.00;;;;;;;19.24;22.25;101108.63;124583;1102;104248;-78
2022/05/05 13:06:30;;;;;;;;;;;;;;;19.18;21.92;101110.36;124556;1099;104159;-79
2022/05/05 13:09:15;;;;;;;4.90;2.50;;;;;;;19.20;22.31;101113.92;124461;1099;104417;-80
2022/05/05 13:11:51;;;;;;;;;;;;;;;19.12;20.75;101117.37;125112;1102;104173;-80